sensor_id;sensor_type;location;lat;lon;timestamp;temperature;humidity
19206;DHT22;59358;52.134;5.596;2022-11-02T00:01:53;12.50;99.90
19206;DHT22;59358;52.134;5.596;2022-11-02T00:04:21;12.50;99.90
19206;DHT22;59358;52.134;5.596;2022-11-02T00:06:48;12.50;99.90
19206;DHT22;59358;52.134;5.596;2022-11-02T00:09:15;12.60;99.90
19206;DHT22;59358;52.134;5.596;2022-11-02T00:11:42;12.60;99.90
19206;DHT22;59358;52.134;5.596;2022-11-02T00:14:09;12.70;99.90
19206;DHT22;59358;52.134;5.596;2022-11-02T00:16:37;12.70;99.90
19206;DHT22;59358;52.134;5.596;2022-11-02T00:19:05;12.70;99.90
19206;DHT22;59358;52.134;5.596;2022-11-02T00:21:35;12.80;99.90
19206;DHT22;59358;52.134;5.596;2022-11-02T00:24:03;12.70;99.90
19206;DHT22;59358;52.134;5.596;2022-11-02T00:26:32;12.80;99.90
19206;DHT22;59358;52.134;5.596;2022-11-02T00:29:00;12.80;99.90
19206;DHT22;59358;52.134;5.596;2022-11-02T00:31:27;12.90;99.90
19206;DHT22;59358;52.134;5.596;2022-11-02T00:33:54;12.90;99.90
19206;DHT22;59358;52.134;5.596;2022-11-02T00:36:21;13.00;99.90
19206;DHT22;59358;52.134;5.596;2022-11-02T00:38:51;13.00;99.90
19206;DHT22;59358;52.134;5.596;2022-11-02T00:41:18;13.00;99.90
19206;DHT22;59358;52.134;5.596;2022-11-02T00:43:45;13.00;99.90
19206;DHT22;59358;52.134;5.596;2022-11-02T00:46:12;13.00;99.90
19206;DHT22;59358;52.134;5.596;2022-11-02T00:48:39;13.00;99.90
19206;DHT22;59358;52.134;5.596;2022-11-02T00:51:06;13.00;99.90
19206;DHT22;59358;52.134;5.596;2022-11-02T00:53:32;13.10;99.90
19206;DHT22;59358;52.134;5.596;2022-11-02T00:56:01;13.10;99.90
19206;DHT22;59358;52.134;5.596;2022-11-02T00:58:28;13.10;99.90
19206;DHT22;59358;52.134;5.596;2022-11-02T01:00:55;13.00;99.90
19206;DHT22;59358;52.134;5.596;2022-11-02T01:03:22;13.00;99.90
19206;DHT22;59358;52.134;5.596;2022-11-02T01:05:49;12.90;99.90
19206;DHT22;59358;52.134;5.596;2022-11-02T01:08:15;13.00;99.90
19206;DHT22;59358;52.134;5.596;2022-11-02T01:10:43;12.90;99.90
19206;DHT22;59358;52.134;5.596;2022-11-02T01:13:11;12.90;99.90
19206;DHT22;59358;52.134;5.596;2022-11-02T01:15:38;12.90;99.90
19206;DHT22;59358;52.134;5.596;2022-11-02T01:18:04;12.90;99.90
19206;DHT22;59358;52.134;5.596;2022-11-02T01:20:31;12.90;99.90
19206;DHT22;59358;52.134;5.596;2022-11-02T01:22:58;13.00;99.90
19206;DHT22;59358;52.134;5.596;2022-11-02T01:25:25;12.80;99.90
19206;DHT22;59358;52.134;5.596;2022-11-02T01:27:52;12.00;99.90
19206;DHT22;59358;52.134;5.596;2022-11-02T01:30:20;11.60;99.90
19206;DHT22;59358;52.134;5.596;2022-11-02T01:32:47;11.40;99.90
19206;DHT22;59358;52.134;5.596;2022-11-02T01:35:13;11.30;99.90
19206;DHT22;59358;52.134;5.596;2022-11-02T01:37:41;11.20;99.90
19206;DHT22;59358;52.134;5.596;2022-11-02T01:40:09;11.10;99.90
19206;DHT22;59358;52.134;5.596;2022-11-02T01:42:36;11.10;99.90
19206;DHT22;59358;52.134;5.596;2022-11-02T01:45:03;11.00;99.90
19206;DHT22;59358;52.134;5.596;2022-11-02T01:47:35;11.00;99.90
19206;DHT22;59358;52.134;5.596;2022-11-02T01:50:05;11.00;99.90
19206;DHT22;59358;52.134;5.596;2022-11-02T01:52:34;11.00;99.90
19206;DHT22;59358;52.134;5.596;2022-11-02T01:55:05;11.00;99.90
19206;DHT22;59358;52.134;5.596;2022-11-02T01:57:34;10.90;99.90
19206;DHT22;59358;52.134;5.596;2022-11-02T02:00:05;10.80;99.90
19206;DHT22;59358;52.134;5.596;2022-11-02T02:02:36;10.60;99.90
19206;DHT22;59358;52.134;5.596;2022-11-02T02:05:06;10.50;99.90
19206;DHT22;59358;52.134;5.596;2022-11-02T02:07:37;10.60;99.90
19206;DHT22;59358;52.134;5.596;2022-11-02T02:10:05;10.60;99.90
19206;DHT22;59358;52.134;5.596;2022-11-02T02:12:33;10.40;99.90
19206;DHT22;59358;52.134;5.596;2022-11-02T02:15:01;10.40;99.90
19206;DHT22;59358;52.134;5.596;2022-11-02T02:17:36;10.30;99.90
19206;DHT22;59358;52.134;5.596;2022-11-02T02:20:10;10.20;99.90
19206;DHT22;59358;52.134;5.596;2022-11-02T02:26:13;10.20;99.90
19206;DHT22;59358;52.134;5.596;2022-11-02T02:28:51;10.10;99.90
19206;DHT22;59358;52.134;5.596;2022-11-02T02:31:23;10.10;99.90
19206;DHT22;59358;52.134;5.596;2022-11-02T02:33:58;10.10;99.90
19206;DHT22;59358;52.134;5.596;2022-11-02T02:36:30;10.20;99.90
19206;DHT22;59358;52.134;5.596;2022-11-02T02:39:02;10.10;99.90
19206;DHT22;59358;52.134;5.596;2022-11-02T02:41:36;10.10;99.90
19206;DHT22;59358;52.134;5.596;2022-11-02T02:44:08;10.20;99.90
19206;DHT22;59358;52.134;5.596;2022-11-02T02:46:39;10.10;99.90
19206;DHT22;59358;52.134;5.596;2022-11-02T02:49:14;10.10;99.90
19206;DHT22;59358;52.134;5.596;2022-11-02T02:51:43;10.20;99.90
19206;DHT22;59358;52.134;5.596;2022-11-02T02:54:18;10.30;99.90
19206;DHT22;59358;52.134;5.596;2022-11-02T02:56:48;10.40;99.90
19206;DHT22;59358;52.134;5.596;2022-11-02T02:59:20;10.50;99.90
19206;DHT22;59358;52.134;5.596;2022-11-02T03:01:48;10.60;99.90
19206;DHT22;59358;52.134;5.596;2022-11-02T03:04:16;10.60;99.90
19206;DHT22;59358;52.134;5.596;2022-11-02T03:06:46;10.60;99.90
19206;DHT22;59358;52.134;5.596;2022-11-02T03:09:18;10.70;99.90
19206;DHT22;59358;52.134;5.596;2022-11-02T03:11:50;10.70;99.90
19206;DHT22;59358;52.134;5.596;2022-11-02T03:14:32;10.70;99.90
19206;DHT22;59358;52.134;5.596;2022-11-02T03:17:15;10.60;99.90
19206;DHT22;59358;52.134;5.596;2022-11-02T03:19:48;10.70;99.90
19206;DHT22;59358;52.134;5.596;2022-11-02T03:22:22;10.80;99.90
19206;DHT22;59358;52.134;5.596;2022-11-02T03:24:56;10.90;99.90
19206;DHT22;59358;52.134;5.596;2022-11-02T03:27:33;10.90;99.90
19206;DHT22;59358;52.134;5.596;2022-11-02T03:30:05;10.90;99.90
19206;DHT22;59358;52.134;5.596;2022-11-02T03:32:37;10.90;99.90
19206;DHT22;59358;52.134;5.596;2022-11-02T03:35:11;10.90;99.90
19206;DHT22;59358;52.134;5.596;2022-11-02T03:37:43;10.90;99.90
19206;DHT22;59358;52.134;5.596;2022-11-02T03:40:14;10.90;99.90
19206;DHT22;59358;52.134;5.596;2022-11-02T03:42:45;11.00;99.90
19206;DHT22;59358;52.134;5.596;2022-11-02T03:45:16;11.10;99.90
19206;DHT22;59358;52.134;5.596;2022-11-02T03:47:47;11.00;99.90
19206;DHT22;59358;52.134;5.596;2022-11-02T03:50:19;11.10;99.90
19206;DHT22;59358;52.134;5.596;2022-11-02T03:52:55;11.10;99.90
19206;DHT22;59358;52.134;5.596;2022-11-02T03:55:28;11.20;99.90
19206;DHT22;59358;52.134;5.596;2022-11-02T03:57:57;11.20;99.90
19206;DHT22;59358;52.134;5.596;2022-11-02T04:00:28;11.30;99.90
19206;DHT22;59358;52.134;5.596;2022-11-02T04:02:59;11.30;99.90
19206;DHT22;59358;52.134;5.596;2022-11-02T04:05:29;11.30;99.90
19206;DHT22;59358;52.134;5.596;2022-11-02T04:07:57;11.30;99.90
19206;DHT22;59358;52.134;5.596;2022-11-02T04:10:42;11.40;99.90
19206;DHT22;59358;52.134;5.596;2022-11-02T04:13:22;11.40;99.90
19206;DHT22;59358;52.134;5.596;2022-11-02T04:16:08;11.50;99.90
19206;DHT22;59358;52.134;5.596;2022-11-02T04:18:35;11.50;99.90
19206;DHT22;59358;52.134;5.596;2022-11-02T04:21:19;11.60;99.90
19206;DHT22;59358;52.134;5.596;2022-11-02T04:23:46;11.60;99.90
19206;DHT22;59358;52.134;5.596;2022-11-02T04:26:30;11.60;99.90
19206;DHT22;59358;52.134;5.596;2022-11-02T04:28:57;11.60;99.90
19206;DHT22;59358;52.134;5.596;2022-11-02T04:31:25;11.80;99.90
19206;DHT22;59358;52.134;5.596;2022-11-02T04:33:52;11.80;99.90
19206;DHT22;59358;52.134;5.596;2022-11-02T04:36:18;11.80;99.90
19206;DHT22;59358;52.134;5.596;2022-11-02T04:38:44;11.80;99.90
19206;DHT22;59358;52.134;5.596;2022-11-02T04:41:12;11.90;99.90
19206;DHT22;59358;52.134;5.596;2022-11-02T04:44:09;11.90;99.90
19206;DHT22;59358;52.134;5.596;2022-11-02T04:46:39;11.90;99.90
19206;DHT22;59358;52.134;5.596;2022-11-02T04:49:06;11.90;99.90
19206;DHT22;59358;52.134;5.596;2022-11-02T04:51:34;11.90;99.90
19206;DHT22;59358;52.134;5.596;2022-11-02T04:54:01;11.90;99.90
19206;DHT22;59358;52.134;5.596;2022-11-02T04:56:29;12.00;99.90
19206;DHT22;59358;52.134;5.596;2022-11-02T04:58:57;12.00;99.90
19206;DHT22;59358;52.134;5.596;2022-11-02T05:01:25;12.00;99.90
19206;DHT22;59358;52.134;5.596;2022-11-02T05:03:54;12.00;99.90
19206;DHT22;59358;52.134;5.596;2022-11-02T05:06:22;12.00;99.90
19206;DHT22;59358;52.134;5.596;2022-11-02T05:08:50;12.00;99.90
19206;DHT22;59358;52.134;5.596;2022-11-02T05:11:17;11.90;99.90
19206;DHT22;59358;52.134;5.596;2022-11-02T05:13:44;12.00;99.90
19206;DHT22;59358;52.134;5.596;2022-11-02T05:16:12;11.90;99.90
19206;DHT22;59358;52.134;5.596;2022-11-02T05:18:39;11.90;99.90
19206;DHT22;59358;52.134;5.596;2022-11-02T05:21:08;11.80;99.90
19206;DHT22;59358;52.134;5.596;2022-11-02T05:23:35;11.80;99.90
19206;DHT22;59358;52.134;5.596;2022-11-02T05:26:04;11.80;99.90
19206;DHT22;59358;52.134;5.596;2022-11-02T05:28:32;11.70;99.90
19206;DHT22;59358;52.134;5.596;2022-11-02T05:31:00;11.60;99.90
19206;DHT22;59358;52.134;5.596;2022-11-02T05:33:28;11.60;99.90
19206;DHT22;59358;52.134;5.596;2022-11-02T05:35:56;11.50;99.90
19206;DHT22;59358;52.134;5.596;2022-11-02T05:38:25;11.50;99.90
19206;DHT22;59358;52.134;5.596;2022-11-02T05:40:52;11.50;99.90
19206;DHT22;59358;52.134;5.596;2022-11-02T05:43:19;11.50;99.90
19206;DHT22;59358;52.134;5.596;2022-11-02T05:45:51;11.60;99.90
19206;DHT22;59358;52.134;5.596;2022-11-02T05:48:18;11.50;99.90
19206;DHT22;59358;52.134;5.596;2022-11-02T05:50:45;11.40;99.90
19206;DHT22;59358;52.134;5.596;2022-11-02T05:53:12;11.40;99.90
19206;DHT22;59358;52.134;5.596;2022-11-02T05:55:41;11.40;99.90
19206;DHT22;59358;52.134;5.596;2022-11-02T05:58:08;11.40;99.90
19206;DHT22;59358;52.134;5.596;2022-11-02T06:00:34;11.40;99.90
19206;DHT22;59358;52.134;5.596;2022-11-02T06:03:01;11.40;99.90
19206;DHT22;59358;52.134;5.596;2022-11-02T06:05:28;11.40;99.90
19206;DHT22;59358;52.134;5.596;2022-11-02T06:07:57;11.30;99.90
19206;DHT22;59358;52.134;5.596;2022-11-02T06:10:25;11.40;99.90
19206;DHT22;59358;52.134;5.596;2022-11-02T06:12:57;11.40;99.90
19206;DHT22;59358;52.134;5.596;2022-11-02T06:15:25;11.40;99.90
19206;DHT22;59358;52.134;5.596;2022-11-02T06:17:52;11.40;99.90
19206;DHT22;59358;52.134;5.596;2022-11-02T06:20:19;11.40;99.90
19206;DHT22;59358;52.134;5.596;2022-11-02T06:22:46;11.40;99.90
19206;DHT22;59358;52.134;5.596;2022-11-02T06:25:14;11.30;99.90
19206;DHT22;59358;52.134;5.596;2022-11-02T06:27:41;11.30;99.90
19206;DHT22;59358;52.134;5.596;2022-11-02T06:30:10;11.30;99.90
19206;DHT22;59358;52.134;5.596;2022-11-02T06:32:37;11.20;99.90
19206;DHT22;59358;52.134;5.596;2022-11-02T06:35:04;11.20;99.90
19206;DHT22;59358;52.134;5.596;2022-11-02T06:37:34;11.20;99.90
19206;DHT22;59358;52.134;5.596;2022-11-02T06:40:01;11.20;99.90
19206;DHT22;59358;52.134;5.596;2022-11-02T06:42:28;11.20;99.90
19206;DHT22;59358;52.134;5.596;2022-11-02T06:44:55;11.20;99.90
19206;DHT22;59358;52.134;5.596;2022-11-02T06:47:30;11.30;99.90
19206;DHT22;59358;52.134;5.596;2022-11-02T06:49:57;11.30;99.90
19206;DHT22;59358;52.134;5.596;2022-11-02T06:52:24;11.30;99.90
19206;DHT22;59358;52.134;5.596;2022-11-02T06:54:51;11.30;99.90
19206;DHT22;59358;52.134;5.596;2022-11-02T06:57:18;11.20;99.90
19206;DHT22;59358;52.134;5.596;2022-11-02T06:59:45;11.30;99.90
19206;DHT22;59358;52.134;5.596;2022-11-02T07:02:12;11.30;99.90
19206;DHT22;59358;52.134;5.596;2022-11-02T07:04:40;11.30;99.90
19206;DHT22;59358;52.134;5.596;2022-11-02T07:07:07;11.30;99.90
19206;DHT22;59358;52.134;5.596;2022-11-02T07:09:34;11.30;99.90
19206;DHT22;59358;52.134;5.596;2022-11-02T07:12:01;11.20;99.90
19206;DHT22;59358;52.134;5.596;2022-11-02T07:14:28;11.20;99.90
19206;DHT22;59358;52.134;5.596;2022-11-02T07:16:55;11.30;99.90
19206;DHT22;59358;52.134;5.596;2022-11-02T07:19:22;11.30;99.90
19206;DHT22;59358;52.134;5.596;2022-11-02T07:21:50;11.30;99.90
19206;DHT22;59358;52.134;5.596;2022-11-02T07:24:17;11.30;99.90
19206;DHT22;59358;52.134;5.596;2022-11-02T07:26:46;11.30;99.90
19206;DHT22;59358;52.134;5.596;2022-11-02T07:29:13;11.30;99.90
19206;DHT22;59358;52.134;5.596;2022-11-02T07:31:40;11.30;99.90
19206;DHT22;59358;52.134;5.596;2022-11-02T07:34:07;11.40;99.90
19206;DHT22;59358;52.134;5.596;2022-11-02T07:36:34;11.30;99.90
19206;DHT22;59358;52.134;5.596;2022-11-02T07:39:03;11.40;99.90
19206;DHT22;59358;52.134;5.596;2022-11-02T07:41:30;11.50;99.90
19206;DHT22;59358;52.134;5.596;2022-11-02T07:43:56;11.50;99.90
19206;DHT22;59358;52.134;5.596;2022-11-02T07:46:23;11.50;99.90
19206;DHT22;59358;52.134;5.596;2022-11-02T07:48:50;11.60;99.90
19206;DHT22;59358;52.134;5.596;2022-11-02T07:51:17;11.50;99.90
19206;DHT22;59358;52.134;5.596;2022-11-02T07:53:44;11.40;99.90
19206;DHT22;59358;52.134;5.596;2022-11-02T07:56:12;11.40;99.90
19206;DHT22;59358;52.134;5.596;2022-11-02T07:58:42;11.40;99.90
19206;DHT22;59358;52.134;5.596;2022-11-02T08:01:12;11.50;99.90
19206;DHT22;59358;52.134;5.596;2022-11-02T08:03:41;11.50;99.90
19206;DHT22;59358;52.134;5.596;2022-11-02T08:06:09;11.50;99.90
19206;DHT22;59358;52.134;5.596;2022-11-02T08:08:47;11.50;99.90
19206;DHT22;59358;52.134;5.596;2022-11-02T08:11:17;11.50;99.90
19206;DHT22;59358;52.134;5.596;2022-11-02T08:13:44;11.60;99.90
19206;DHT22;59358;52.134;5.596;2022-11-02T08:16:11;11.60;99.90
19206;DHT22;59358;52.134;5.596;2022-11-02T08:18:38;11.60;99.90
19206;DHT22;59358;52.134;5.596;2022-11-02T08:21:06;11.60;99.90
19206;DHT22;59358;52.134;5.596;2022-11-02T08:23:33;11.70;99.90
19206;DHT22;59358;52.134;5.596;2022-11-02T08:26:00;11.70;99.90
19206;DHT22;59358;52.134;5.596;2022-11-02T08:28:30;11.70;99.90
19206;DHT22;59358;52.134;5.596;2022-11-02T08:31:00;11.70;99.90
19206;DHT22;59358;52.134;5.596;2022-11-02T08:33:27;11.80;99.90
19206;DHT22;59358;52.134;5.596;2022-11-02T08:35:54;11.80;99.90
19206;DHT22;59358;52.134;5.596;2022-11-02T08:38:28;11.90;99.90
19206;DHT22;59358;52.134;5.596;2022-11-02T08:40:55;11.90;99.90
19206;DHT22;59358;52.134;5.596;2022-11-02T08:43:23;11.90;99.90
19206;DHT22;59358;52.134;5.596;2022-11-02T08:45:51;12.00;99.90
19206;DHT22;59358;52.134;5.596;2022-11-02T08:48:18;12.00;99.90
19206;DHT22;59358;52.134;5.596;2022-11-02T08:50:46;12.00;99.90
19206;DHT22;59358;52.134;5.596;2022-11-02T08:53:13;12.00;99.90
19206;DHT22;59358;52.134;5.596;2022-11-02T08:55:40;12.10;99.90
19206;DHT22;59358;52.134;5.596;2022-11-02T08:58:08;12.00;99.90
19206;DHT22;59358;52.134;5.596;2022-11-02T09:00:35;11.90;99.90
19206;DHT22;59358;52.134;5.596;2022-11-02T09:03:04;12.00;99.90
19206;DHT22;59358;52.134;5.596;2022-11-02T09:05:33;12.10;99.90
19206;DHT22;59358;52.134;5.596;2022-11-02T09:08:01;12.30;99.90
19206;DHT22;59358;52.134;5.596;2022-11-02T09:10:30;12.30;99.90
19206;DHT22;59358;52.134;5.596;2022-11-02T09:13:01;12.50;99.90
19206;DHT22;59358;52.134;5.596;2022-11-02T09:15:28;12.50;99.90
19206;DHT22;59358;52.134;5.596;2022-11-02T09:17:55;12.50;99.90
19206;DHT22;59358;52.134;5.596;2022-11-02T09:20:23;12.60;99.90
19206;DHT22;59358;52.134;5.596;2022-11-02T09:22:51;12.60;99.90
19206;DHT22;59358;52.134;5.596;2022-11-02T09:25:18;12.60;99.90
19206;DHT22;59358;52.134;5.596;2022-11-02T09:27:45;12.80;99.90
19206;DHT22;59358;52.134;5.596;2022-11-02T09:30:12;12.80;99.90
19206;DHT22;59358;52.134;5.596;2022-11-02T09:32:39;13.00;99.90
19206;DHT22;59358;52.134;5.596;2022-11-02T09:35:08;13.10;99.90
19206;DHT22;59358;52.134;5.596;2022-11-02T09:37:38;13.10;99.90
19206;DHT22;59358;52.134;5.596;2022-11-02T09:40:05;13.10;99.90
19206;DHT22;59358;52.134;5.596;2022-11-02T09:42:38;13.20;99.90
19206;DHT22;59358;52.134;5.596;2022-11-02T09:45:11;13.20;99.90
19206;DHT22;59358;52.134;5.596;2022-11-02T09:47:42;13.20;99.90
19206;DHT22;59358;52.134;5.596;2022-11-02T09:50:14;13.20;99.90
19206;DHT22;59358;52.134;5.596;2022-11-02T09:52:44;13.10;99.90
19206;DHT22;59358;52.134;5.596;2022-11-02T09:55:17;13.20;99.90
19206;DHT22;59358;52.134;5.596;2022-11-02T09:57:47;13.30;99.90
19206;DHT22;59358;52.134;5.596;2022-11-02T10:00:18;13.40;99.90
19206;DHT22;59358;52.134;5.596;2022-11-02T10:02:51;13.40;99.90
19206;DHT22;59358;52.134;5.596;2022-11-02T10:05:28;13.50;99.90
19206;DHT22;59358;52.134;5.596;2022-11-02T10:08:09;13.60;99.90
19206;DHT22;59358;52.134;5.596;2022-11-02T10:10:48;13.60;99.90
19206;DHT22;59358;52.134;5.596;2022-11-02T10:13:27;13.60;99.90
19206;DHT22;59358;52.134;5.596;2022-11-02T10:15:59;13.80;99.90
19206;DHT22;59358;52.134;5.596;2022-11-02T10:18:29;14.00;99.90
19206;DHT22;59358;52.134;5.596;2022-11-02T10:20:59;13.90;99.90
19206;DHT22;59358;52.134;5.596;2022-11-02T10:23:31;14.00;99.90
19206;DHT22;59358;52.134;5.596;2022-11-02T10:26:00;14.10;99.90
19206;DHT22;59358;52.134;5.596;2022-11-02T10:28:30;14.20;99.90
19206;DHT22;59358;52.134;5.596;2022-11-02T10:30:59;14.30;99.90
19206;DHT22;59358;52.134;5.596;2022-11-02T10:33:28;14.20;99.90
19206;DHT22;59358;52.134;5.596;2022-11-02T10:36:12;14.20;99.90
19206;DHT22;59358;52.134;5.596;2022-11-02T10:38:55;14.30;99.90
19206;DHT22;59358;52.134;5.596;2022-11-02T10:41:44;14.50;99.90
19206;DHT22;59358;52.134;5.596;2022-11-02T10:44:23;14.40;99.90
19206;DHT22;59358;52.134;5.596;2022-11-02T10:47:02;14.50;99.90
19206;DHT22;59358;52.134;5.596;2022-11-02T10:49:48;14.60;99.90
19206;DHT22;59358;52.134;5.596;2022-11-02T10:52:21;14.60;99.90
19206;DHT22;59358;52.134;5.596;2022-11-02T10:54:50;14.50;99.90
19206;DHT22;59358;52.134;5.596;2022-11-02T10:57:21;14.70;99.90
19206;DHT22;59358;52.134;5.596;2022-11-02T11:03:08;14.70;99.90
19206;DHT22;59358;52.134;5.596;2022-11-02T11:05:42;14.90;99.90
19206;DHT22;59358;52.134;5.596;2022-11-02T11:08:27;15.00;99.90
19206;DHT22;59358;52.134;5.596;2022-11-02T11:11:16;15.20;99.90
19206;DHT22;59358;52.134;5.596;2022-11-02T11:13:51;15.10;99.90
19206;DHT22;59358;52.134;5.596;2022-11-02T11:16:18;14.90;99.90
19206;DHT22;59358;52.134;5.596;2022-11-02T11:18:49;14.90;99.90
19206;DHT22;59358;52.134;5.596;2022-11-02T11:21:17;14.90;99.90
19206;DHT22;59358;52.134;5.596;2022-11-02T11:23:44;14.80;99.90
19206;DHT22;59358;52.134;5.596;2022-11-02T11:26:27;14.80;99.90
19206;DHT22;59358;52.134;5.596;2022-11-02T11:28:55;15.00;99.90
19206;DHT22;59358;52.134;5.596;2022-11-02T11:31:23;15.00;99.90
19206;DHT22;59358;52.134;5.596;2022-11-02T11:33:52;15.00;99.90
19206;DHT22;59358;52.134;5.596;2022-11-02T11:36:25;15.00;99.90
19206;DHT22;59358;52.134;5.596;2022-11-02T11:38:54;14.90;99.90
19206;DHT22;59358;52.134;5.596;2022-11-02T11:41:23;15.00;99.90
19206;DHT22;59358;52.134;5.596;2022-11-02T11:43:51;14.90;99.90
19206;DHT22;59358;52.134;5.596;2022-11-02T11:46:18;14.80;99.90
19206;DHT22;59358;52.134;5.596;2022-11-02T11:48:48;14.80;99.90
19206;DHT22;59358;52.134;5.596;2022-11-02T11:51:27;14.80;99.90
19206;DHT22;59358;52.134;5.596;2022-11-02T11:54:06;14.90;99.90
19206;DHT22;59358;52.134;5.596;2022-11-02T11:56:41;15.10;99.90
19206;DHT22;59358;52.134;5.596;2022-11-02T11:59:18;15.30;99.90
19206;DHT22;59358;52.134;5.596;2022-11-02T12:01:45;15.30;99.90
19206;DHT22;59358;52.134;5.596;2022-11-02T12:04:12;15.50;99.90
19206;DHT22;59358;52.134;5.596;2022-11-02T12:07:02;15.60;99.90
19206;DHT22;59358;52.134;5.596;2022-11-02T12:09:34;15.70;99.90
19206;DHT22;59358;52.134;5.596;2022-11-02T12:12:08;15.50;99.90
19206;DHT22;59358;52.134;5.596;2022-11-02T12:14:49;15.70;99.90
19206;DHT22;59358;52.134;5.596;2022-11-02T12:17:47;15.70;99.90
19206;DHT22;59358;52.134;5.596;2022-11-02T12:20:49;15.70;99.90
19206;DHT22;59358;52.134;5.596;2022-11-02T12:23:47;15.60;99.90
19206;DHT22;59358;52.134;5.596;2022-11-02T12:26:28;15.60;99.90
19206;DHT22;59358;52.134;5.596;2022-11-02T12:29:10;15.70;99.90
19206;DHT22;59358;52.134;5.596;2022-11-02T12:31:42;15.80;99.90
19206;DHT22;59358;52.134;5.596;2022-11-02T12:34:26;15.90;99.90
19206;DHT22;59358;52.134;5.596;2022-11-02T12:37:05;15.70;99.90
19206;DHT22;59358;52.134;5.596;2022-11-02T12:39:47;15.30;99.90
19206;DHT22;59358;52.134;5.596;2022-11-02T12:42:25;15.20;99.90
19206;DHT22;59358;52.134;5.596;2022-11-02T12:45:18;15.40;99.90
19206;DHT22;59358;52.134;5.596;2022-11-02T12:47:54;15.50;99.90
19206;DHT22;59358;52.134;5.596;2022-11-02T12:50:32;15.80;99.90
19206;DHT22;59358;52.134;5.596;2022-11-02T12:53:16;15.70;99.90
19206;DHT22;59358;52.134;5.596;2022-11-02T12:55:47;15.80;99.90
19206;DHT22;59358;52.134;5.596;2022-11-02T12:58:18;15.80;99.90
19206;DHT22;59358;52.134;5.596;2022-11-02T13:00:52;15.70;99.90
19206;DHT22;59358;52.134;5.596;2022-11-02T13:03:29;15.80;99.90
19206;DHT22;59358;52.134;5.596;2022-11-02T13:06:02;15.80;99.90
19206;DHT22;59358;52.134;5.596;2022-11-02T13:08:37;15.80;99.90
19206;DHT22;59358;52.134;5.596;2022-11-02T13:11:08;15.70;99.90
19206;DHT22;59358;52.134;5.596;2022-11-02T13:13:42;15.50;99.90
19206;DHT22;59358;52.134;5.596;2022-11-02T13:16:13;15.50;99.90
19206;DHT22;59358;52.134;5.596;2022-11-02T13:18:45;15.50;99.90
19206;DHT22;59358;52.134;5.596;2022-11-02T13:21:15;15.70;99.90
19206;DHT22;59358;52.134;5.596;2022-11-02T13:23:44;15.70;99.90
19206;DHT22;59358;52.134;5.596;2022-11-02T13:26:23;15.80;99.90
19206;DHT22;59358;52.134;5.596;2022-11-02T13:28:53;15.60;99.90
19206;DHT22;59358;52.134;5.596;2022-11-02T13:31:27;15.60;99.90
19206;DHT22;59358;52.134;5.596;2022-11-02T13:33:59;15.60;99.90
19206;DHT22;59358;52.134;5.596;2022-11-02T13:36:27;15.70;99.90
19206;DHT22;59358;52.134;5.596;2022-11-02T13:38:58;15.50;99.90
19206;DHT22;59358;52.134;5.596;2022-11-02T13:41:42;15.60;99.90
19206;DHT22;59358;52.134;5.596;2022-11-02T13:44:47;15.60;99.90
19206;DHT22;59358;52.134;5.596;2022-11-02T13:47:40;15.70;99.90
19206;DHT22;59358;52.134;5.596;2022-11-02T13:50:13;15.50;99.90
19206;DHT22;59358;52.134;5.596;2022-11-02T13:52:44;15.60;99.90
19206;DHT22;59358;52.134;5.596;2022-11-02T13:55:17;15.60;99.90
19206;DHT22;59358;52.134;5.596;2022-11-02T13:57:47;15.50;99.90
19206;DHT22;59358;52.134;5.596;2022-11-02T14:00:28;15.50;99.90
19206;DHT22;59358;52.134;5.596;2022-11-02T14:02:59;15.50;99.90
19206;DHT22;59358;52.134;5.596;2022-11-02T14:05:30;15.50;99.90
19206;DHT22;59358;52.134;5.596;2022-11-02T14:08:00;15.50;99.90
19206;DHT22;59358;52.134;5.596;2022-11-02T14:10:27;15.50;99.90
19206;DHT22;59358;52.134;5.596;2022-11-02T14:12:54;15.50;99.90
19206;DHT22;59358;52.134;5.596;2022-11-02T14:15:50;15.50;99.90
19206;DHT22;59358;52.134;5.596;2022-11-02T14:18:29;15.40;99.90
19206;DHT22;59358;52.134;5.596;2022-11-02T14:20:57;15.50;99.90
19206;DHT22;59358;52.134;5.596;2022-11-02T14:23:35;15.30;99.90
19206;DHT22;59358;52.134;5.596;2022-11-02T14:26:03;15.20;99.90
19206;DHT22;59358;52.134;5.596;2022-11-02T14:28:32;15.20;99.90
19206;DHT22;59358;52.134;5.596;2022-11-02T14:34:24;15.40;99.90
19206;DHT22;59358;52.134;5.596;2022-11-02T14:37:04;15.30;99.90
19206;DHT22;59358;52.134;5.596;2022-11-02T14:39:39;15.30;99.90
19206;DHT22;59358;52.134;5.596;2022-11-02T14:42:24;15.40;99.90
19206;DHT22;59358;52.134;5.596;2022-11-02T14:45:19;15.50;99.90
19206;DHT22;59358;52.134;5.596;2022-11-02T14:47:56;15.50;99.90
19206;DHT22;59358;52.134;5.596;2022-11-02T14:50:26;15.40;99.90
19206;DHT22;59358;52.134;5.596;2022-11-02T14:52:56;15.50;99.90
19206;DHT22;59358;52.134;5.596;2022-11-02T14:55:28;15.40;99.90
19206;DHT22;59358;52.134;5.596;2022-11-02T14:57:59;15.30;99.90
19206;DHT22;59358;52.134;5.596;2022-11-02T15:00:34;15.00;99.90
19206;DHT22;59358;52.134;5.596;2022-11-02T15:03:03;14.90;99.90
19206;DHT22;59358;52.134;5.596;2022-11-02T15:05:34;14.70;99.90
19206;DHT22;59358;52.134;5.596;2022-11-02T15:08:03;14.70;99.90
19206;DHT22;59358;52.134;5.596;2022-11-02T15:10:37;14.60;99.90
19206;DHT22;59358;52.134;5.596;2022-11-02T15:13:32;14.50;99.90
19206;DHT22;59358;52.134;5.596;2022-11-02T15:16:20;14.50;99.90
19206;DHT22;59358;52.134;5.596;2022-11-02T15:18:47;14.40;99.90
19206;DHT22;59358;52.134;5.596;2022-11-02T15:21:25;14.40;99.90
19206;DHT22;59358;52.134;5.596;2022-11-02T15:24:18;14.30;99.90
19206;DHT22;59358;52.134;5.596;2022-11-02T15:26:50;14.20;99.90
19206;DHT22;59358;52.134;5.596;2022-11-02T15:29:32;14.10;99.90
19206;DHT22;59358;52.134;5.596;2022-11-02T15:32:03;14.00;99.90
19206;DHT22;59358;52.134;5.596;2022-11-02T15:34:36;14.00;99.90
19206;DHT22;59358;52.134;5.596;2022-11-02T15:37:07;13.90;99.90
19206;DHT22;59358;52.134;5.596;2022-11-02T15:39:38;13.80;99.90
19206;DHT22;59358;52.134;5.596;2022-11-02T15:42:13;13.70;99.90
19206;DHT22;59358;52.134;5.596;2022-11-02T15:45:10;13.70;99.90
19206;DHT22;59358;52.134;5.596;2022-11-02T15:47:48;13.60;99.90
19206;DHT22;59358;52.134;5.596;2022-11-02T15:50:28;13.50;99.90
19206;DHT22;59358;52.134;5.596;2022-11-02T15:53:17;13.50;99.90
19206;DHT22;59358;52.134;5.596;2022-11-02T15:55:52;13.40;99.90
19206;DHT22;59358;52.134;5.596;2022-11-02T15:58:32;13.30;99.90
19206;DHT22;59358;52.134;5.596;2022-11-02T16:01:10;13.20;99.90
19206;DHT22;59358;52.134;5.596;2022-11-02T16:03:43;13.10;99.90
19206;DHT22;59358;52.134;5.596;2022-11-02T16:06:10;13.10;99.90
19206;DHT22;59358;52.134;5.596;2022-11-02T16:08:39;13.00;99.90